Rhapsody Of The Seas — C6UA2 — position and weather

sailwx.info

Track history (hours):
 
Tides and Currents Weather Stations Pressure Air Temp Water Temp Dewpoint Dewpoint Depression Visibility Wind Speed Wind Dir Waves Ship Positions

Rhapsody Of The Seas

Last reported at 2017-Feb-21 09:00 UTC. Time now 2017-Feb-22 04:23 UTC.
Position N 16°48' W 087°54'.

Type: Passenger vessel. MMSI: 311805000.

Wind from 100 at 19 knots

Barometer 1013.0 mb
Air temperature 25.0 ° C
Dewpoint 23.6 ° C
Water temperature 27.0 ° C

Date/timePositionNaut miles runAvg speedWind from/ knotsBaromVisibWave heightAir tempDewpointWater temp
2017-Feb-21 09:00N 16°48' W 087°54'121 5.0 100 / 191013.0 25.023.627.0
2017-Feb-20 09:00N 18°00' W 086°12'46918.8 140 / 401013.0 25.022.227.0
2017-Feb-19 08:00N 25°30' W 083°48'13916.3 140 / 111016.0 23.021.623.0
2017-Feb-18 23:28N 27°36' W 082°44'1314.7
2017-Feb-18 22:34N 27°44' W 082°32'1211.8
2017-Feb-18 21:33N 27°55' W 082°27'2 1.8
2017-Feb-18 20:33N 27°57' W 082°27'0 0.0
2017-Feb-18 19:30N 27°57' W 082°27'0 0.0
2017-Feb-18 18:33N 27°57' W 082°27'0 0.0
2017-Feb-18 17:33N 27°57' W 082°27'0 0.0
2017-Feb-18 16:33N 27°57' W 082°27'0 0.0
2017-Feb-18 15:33N 27°57' W 082°27'0 0.0
2017-Feb-18 14:33N 27°57' W 082°27'0 0.0
2017-Feb-18 13:33N 27°57' W 082°27'0 0.0
2017-Feb-18 12:33N 27°57' W 082°27'0 0.1
2017-Feb-18 11:33N 27°57' W 082°27'7 7.0
2017-Feb-18 10:34N 27°50' W 082°27'1313.0
2017-Feb-18 09:33N 27°39' W 082°36'1414.1
2017-Feb-18 08:34N 27°36' W 082°52'59 9.0
2017-Feb-18 02:00N 26°42' W 083°18'21014.0 030 / 91017.010.8 19.014.123.0
2017-Feb-17 11:00N 23°36' W 085°06'10016.7 050 / 101016.0 23.016.926.0
2017-Feb-17 05:00N 22°06' W 085°54'10516.1 010 / 191015.010.8 25.020.727.0
2017-Feb-16 22:28N 20°37' W 086°55'7 6.9
2017-Feb-16 21:28N 20°31' W 086°57'0 0.0
2017-Feb-16 20:25N 20°31' W 086°57'0 0.0
2017-Feb-16 19:25N 20°31' W 086°57'0 0.0
2017-Feb-16 18:31N 20°31' W 086°57'0 0.0
2017-Feb-16 17:31N 20°31' W 086°57'0 0.0
2017-Feb-16 16:31N 20°31' W 086°57'0 0.0
2017-Feb-16 15:25N 20°31' W 086°57'0 0.0
2017-Feb-16 14:31N 20°31' W 086°57'0 0.0
2017-Feb-16 13:31N 20°31' W 086°57'0 0.0
2017-Feb-16 12:31N 20°31' W 086°57'0 0.0
2017-Feb-16 11:33N 20°31' W 086°57'7 7.4
2017-Feb-16 10:34N 20°27' W 087°04'143 5.4
2017-Feb-15 08:00N 18°06' W 087°30'68 3.0 140 / 151011.0 25.022.227.0
2017-Feb-14 09:00N 17°00' W 087°48'89 4.1 090 / 151013.0 25.023.626.0
2017-Feb-13 11:00N 17°24' W 086°18'44218.4 050 / 271015.0 26.021.826.0
2017-Feb-12 11:00N 24°30' W 084°12'20317.7 110 / 201022.0 21.016.426.0
2017-Feb-11 23:33N 27°36' W 082°44'1414.5
2017-Feb-11 22:33N 27°46' W 082°31'1010.1
2017-Feb-11 21:33N 27°55' W 082°27'2 1.6
2017-Feb-11 20:33N 27°57' W 082°27'0 0.0
2017-Feb-11 19:33N 27°57' W 082°27'0 0.0
2017-Feb-11 18:33N 27°57' W 082°27'0 0.0
2017-Feb-11 17:33N 27°57' W 082°27'0 0.0
2017-Feb-11 16:33N 27°57' W 082°27'0 0.0
2017-Feb-11 15:33N 27°57' W 082°27'0 0.0
2017-Feb-11 14:33N 27°57' W 082°27'0 0.0
2017-Feb-11 13:33N 27°57' W 082°27'0 0.0
2017-Feb-11 12:33N 27°57' W 082°27'1 0.6
2017-Feb-11 11:33N 27°56' W 082°27'7 7.5
2017-Feb-11 10:34N 27°49' W 082°27'1313.2
2017-Feb-11 09:33N 27°39' W 082°37'  
Track history (hours):
 
Tides and Currents Weather Stations Pressure Air Temp Water Temp Dewpoint Dewpoint Depression Visibility Wind Speed Wind Dir Waves Ship Positions

Rhapsody Of The Seas

Last reported at 2017-Feb-21 09:00 UTC. Time now 2017-Feb-22 04:23 UTC.
Position N 16°48' W 087°54'.

Type: Passenger vessel. MMSI: 311805000.

Wind from 100 at 19 knots

Barometer 1013.0 mb
Air temperature 25.0 ° C
Dewpoint 23.6 ° C
Water temperature 27.0 ° C

Date/timePositionNaut miles runAvg speedWind from/ knotsBaromVisibWave heightAir tempDewpointWater temp
2017-Feb-21 09:00N 16°48' W 087°54'121 5.0 100 / 191013.0 25.023.627.0
2017-Feb-20 09:00N 18°00' W 086°12'46918.8 140 / 401013.0 25.022.227.0
2017-Feb-19 08:00N 25°30' W 083°48'13916.3 140 / 111016.0 23.021.623.0
2017-Feb-18 23:28N 27°36' W 082°44'1314.7
2017-Feb-18 22:34N 27°44' W 082°32'1211.8
2017-Feb-18 21:33N 27°55' W 082°27'2 1.8
2017-Feb-18 20:33N 27°57' W 082°27'0 0.0
2017-Feb-18 19:30N 27°57' W 082°27'0 0.0
2017-Feb-18 18:33N 27°57' W 082°27'0 0.0
2017-Feb-18 17:33N 27°57' W 082°27'0 0.0
2017-Feb-18 16:33N 27°57' W 082°27'0 0.0
2017-Feb-18 15:33N 27°57' W 082°27'0 0.0
2017-Feb-18 14:33N 27°57' W 082°27'0 0.0
2017-Feb-18 13:33N 27°57' W 082°27'0 0.0
2017-Feb-18 12:33N 27°57' W 082°27'0 0.1
2017-Feb-18 11:33N 27°57' W 082°27'7 7.0
2017-Feb-18 10:34N 27°50' W 082°27'1313.0
2017-Feb-18 09:33N 27°39' W 082°36'1414.1
2017-Feb-18 08:34N 27°36' W 082°52'59 9.0
2017-Feb-18 02:00N 26°42' W 083°18'21014.0 030 / 91017.010.8 19.014.123.0
2017-Feb-17 11:00N 23°36' W 085°06'10016.7 050 / 101016.0 23.016.926.0
2017-Feb-17 05:00N 22°06' W 085°54'10516.1 010 / 191015.010.8 25.020.727.0
2017-Feb-16 22:28N 20°37' W 086°55'7 6.9
2017-Feb-16 21:28N 20°31' W 086°57'0 0.0
2017-Feb-16 20:25N 20°31' W 086°57'0 0.0
2017-Feb-16 19:25N 20°31' W 086°57'0 0.0
2017-Feb-16 18:31N 20°31' W 086°57'0 0.0
2017-Feb-16 17:31N 20°31' W 086°57'0 0.0
2017-Feb-16 16:31N 20°31' W 086°57'0 0.0
2017-Feb-16 15:25N 20°31' W 086°57'0 0.0
2017-Feb-16 14:31N 20°31' W 086°57'0 0.0
2017-Feb-16 13:31N 20°31' W 086°57'0 0.0
2017-Feb-16 12:31N 20°31' W 086°57'0 0.0
2017-Feb-16 11:33N 20°31' W 086°57'7 7.4
2017-Feb-16 10:34N 20°27' W 087°04'143 5.4
2017-Feb-15 08:00N 18°06' W 087°30'68 3.0 140 / 151011.0 25.022.227.0
2017-Feb-14 09:00N 17°00' W 087°48'89 4.1 090 / 151013.0 25.023.626.0
2017-Feb-13 11:00N 17°24' W 086°18'44218.4 050 / 271015.0 26.021.826.0
2017-Feb-12 11:00N 24°30' W 084°12'20317.7 110 / 201022.0 21.016.426.0
2017-Feb-11 23:33N 27°36' W 082°44'1414.5
2017-Feb-11 22:33N 27°46' W 082°31'1010.1
2017-Feb-11 21:33N 27°55' W 082°27'2 1.6
2017-Feb-11 20:33N 27°57' W 082°27'0 0.0
2017-Feb-11 19:33N 27°57' W 082°27'0 0.0
2017-Feb-11 18:33N 27°57' W 082°27'0 0.0
2017-Feb-11 17:33N 27°57' W 082°27'0 0.0
2017-Feb-11 16:33N 27°57' W 082°27'0 0.0
2017-Feb-11 15:33N 27°57' W 082°27'0 0.0
2017-Feb-11 14:33N 27°57' W 082°27'0 0.0
2017-Feb-11 13:33N 27°57' W 082°27'0 0.0
2017-Feb-11 12:33N 27°57' W 082°27'1 0.6
2017-Feb-11 11:33N 27°56' W 082°27'7 7.5
2017-Feb-11 10:34N 27°49' W 082°27'1313.2
2017-Feb-11 09:33N 27°39' W 082°37'  

Dump ship's entire track history